Welcome, Maryland
Current Conditions -  °F | °C
As of 9:56 PM on Saturday 25 Oct 2014 (Local Time) from KNYG Reporting Station
Clear Clear  
Wind Chill: 60°   Ceiling: Unl
Heat Index: 60°   Visibility: 10mi
Dew Point: 44°   Wind: 3mph
Humidity: 55%   Direction: 310°NW
Pressure: 29.75"   Gusts: NA
Location:  38.48°N, 77.09°W
Report Text: KNYG 260156Z AUTO 31003KT 10SM CLR 16/07 A2975 RMK AO2 SLP075 T01560067 $
Loading
Personal Weather Stations






























Interactive Weather Map
Tropical Storm Tracking
New forecast layout! Learn more

10-Day Weather Forecast

Advertisements
Track Severe Weather on mobile